Time;durP1;ratioP1;P1;durP2;ratioP2;P2;SDS_P1;SDS_P2;PMS_P1;PMS_P2;Temp;Humidity;BMP_temperature;BMP_pressure;BME280_temperature;BME280_humidity;BME280_pressure;Samples;Min_cycle;Max_cycle;Signal;HPM_P1;HPM_P2
2022/03/24 00:01:48;;;;;;;28.67;15.30;;;4.10;49.60;;;;;;5086480;28;20170;-57
2022/03/24 00:04:14;;;;;;;22.47;13.70;;;4.00;49.70;;;;;;5084721;28;20842;-56
2022/03/24 00:06:40;;;;;;;33.70;15.57;;;4.00;50.00;;;;;;5084304;28;20224;-59
2022/03/24 00:09:06;;;;;;;31.90;15.63;;;3.90;50.00;;;;;;5090371;28;20427;-56
2022/03/24 00:11:32;;;;;;;31.20;15.83;;;3.90;50.20;;;;;;5090179;28;20189;-56
2022/03/24 00:13:58;;;;;;;25.50;15.50;;;3.80;50.30;;;;;;5086547;28;20239;-55
2022/03/24 00:16:24;;;;;;;29.30;16.20;;;3.80;50.50;;;;;;5089536;28;20823;-59
2022/03/24 00:18:50;;;;;;;31.40;15.87;;;3.70;50.50;;;;;;5085228;28;20428;-57
2022/03/24 00:21:16;;;;;;;30.00;15.63;;;3.70;51.00;;;;;;5089775;28;20560;-58
2022/03/24 00:23:45;;;;;;;25.80;15.20;;;3.60;50.50;;;;;;5089024;28;20448;-57
2022/03/24 00:26:11;;;;;;;27.83;15.60;;;3.60;50.60;;;;;;5089922;28;20423;-57
2022/03/24 00:28:36;;;;;;;23.07;15.30;;;3.60;50.60;;;;;;5087477;28;20595;-57
2022/03/24 00:31:02;;;;;;;29.67;16.50;;;3.60;50.70;;;;;;5093050;28;20185;-58
2022/03/24 00:33:29;;;;;;;29.97;14.60;;;3.60;50.90;;;;;;5097060;28;20201;-58
2022/03/24 00:35:55;;;;;;;31.87;17.07;;;3.50;51.00;;;;;;5086999;28;20431;-57
2022/03/24 00:38:21;;;;;;;24.67;15.20;;;3.50;50.90;;;;;;5090127;28;20418;-57
2022/03/24 00:40:47;;;;;;;27.87;14.67;;;3.50;50.80;;;;;;5088124;28;20477;-56
2022/03/24 00:43:13;;;;;;;29.00;15.80;;;3.50;51.00;;;;;;5096287;28;20235;-57
2022/03/24 00:45:40;;;;;;;22.80;14.13;;;3.40;51.00;;;;;;5090822;28;20287;-58
2022/03/24 00:48:07;;;;;;;25.10;15.00;;;3.40;51.20;;;;;;5082073;28;21018;-57
2022/03/24 00:50:33;;;;;;;29.17;14.40;;;3.40;51.30;;;;;;5089704;28;20922;-56
2022/03/24 00:52:59;;;;;;;28.43;15.53;;;3.30;51.20;;;;;;5093409;28;20495;-57
2022/03/24 00:55:25;;;;;;;25.37;14.07;;;3.30;51.20;;;;;;5088597;28;20456;-59
2022/03/24 00:57:54;;;;;;;27.50;14.60;;;3.30;51.20;;;;;;5088967;28;20173;-57
2022/03/24 01:00:21;;;;;;;26.20;14.30;;;3.20;51.30;;;;;;5093735;28;20439;-57
2022/03/24 01:02:52;;;;;;;31.10;16.00;;;3.20;51.40;;;;;;5081829;28;20458;-57
2022/03/24 01:05:19;;;;;;;34.13;15.70;;;3.10;51.50;;;;;;5088540;28;20416;-57
2022/03/24 01:07:46;;;;;;;37.10;17.50;;;3.10;51.50;;;;;;5089708;28;20446;-57
2022/03/24 01:10:15;;;;;;;33.80;15.70;;;3.00;51.60;;;;;;5088504;28;20530;-58
2022/03/24 01:12:42;;;;;;;30.57;15.70;;;3.00;51.70;;;;;;5078504;28;20573;-57
2022/03/24 01:15:10;;;;;;;33.80;17.13;;;3.00;51.90;;;;;;5105515;28;21071;-58
2022/03/24 01:17:37;;;;;;;31.50;16.83;;;3.00;52.00;;;;;;5105638;28;20462;-57
2022/03/24 01:20:05;;;;;;;29.87;15.73;;;2.90;52.10;;;;;;5079365;28;20462;-57
2022/03/24 01:22:31;;;;;;;28.50;14.87;;;2.90;52.10;;;;;;5086613;28;20489;-56
2022/03/24 01:24:59;;;;;;;33.53;17.53;;;2.90;52.10;;;;;;5091177;28;20523;-58
2022/03/24 01:27:28;;;;;;;37.20;17.17;;;2.80;52.10;;;;;;5086516;28;20173;-57
2022/03/24 01:29:57;;;;;;;31.90;16.27;;;2.80;52.20;;;;;;5091687;28;20438;-57
2022/03/24 01:32:24;;;;;;;33.67;17.17;;;2.80;52.30;;;;;;5071260;28;20554;-57
2022/03/24 01:34:52;;;;;;;28.70;16.40;;;2.70;52.40;;;;;;5084050;28;20416;-57
2022/03/24 01:37:18;;;;;;;28.77;16.43;;;2.70;52.50;;;;;;5086391;28;20559;-58
2022/03/24 01:39:44;;;;;;;27.07;15.53;;;2.70;52.70;;;;;;5088809;28;20451;-57
2022/03/24 01:42:10;;;;;;;30.07;17.10;;;2.70;52.70;;;;;;5086241;28;20501;-57
2022/03/24 01:44:36;;;;;;;28.27;16.00;;;2.60;52.70;;;;;;5088164;28;20181;-58
2022/03/24 01:47:06;;;;;;;28.07;16.00;;;2.60;52.80;;;;;;5080343;28;20192;-58
2022/03/24 01:49:35;;;;;;;30.40;17.20;;;2.60;53.00;;;;;;5089941;28;20268;-58
2022/03/24 01:52:01;;;;;;;33.13;16.03;;;2.60;53.10;;;;;;5093735;28;20424;-58
2022/03/24 01:54:30;;;;;;;27.77;15.97;;;2.60;53.10;;;;;;5083608;28;20496;-57
2022/03/24 01:56:57;;;;;;;35.73;16.10;;;2.50;53.00;;;;;;5089288;28;20795;-58
2022/03/24 01:59:23;;;;;;;29.20;15.67;;;2.50;53.00;;;;;;5085327;28;20441;-57
2022/03/24 02:01:49;;;;;;;33.93;15.50;;;2.50;53.00;;;;;;5087131;28;21160;-58
2022/03/24 02:04:16;;;;;;;33.00;16.57;;;2.50;53.10;;;;;;5085756;28;20993;-61
2022/03/24 02:06:42;;;;;;;27.43;15.00;;;2.40;53.10;;;;;;5099306;28;20470;-59
2022/03/24 02:09:08;;;;;;;29.47;16.07;;;2.40;53.20;;;;;;5094763;28;20436;-56
2022/03/24 02:11:35;;;;;;;31.70;16.07;;;2.40;53.30;;;;;;5095858;28;20455;-59
2022/03/24 02:14:02;;;;;;;29.03;16.20;;;2.40;53.40;;;;;;5093521;28;20454;-59
2022/03/24 02:16:38;;;;;;;30.63;15.73;;;2.40;53.40;;;;;;5097076;28;20508;-58
2022/03/24 02:19:16;;;;;;;31.43;15.73;;;2.30;53.50;;;;;;5097453;28;20437;-57
2022/03/24 02:21:43;;;;;;;26.87;16.23;;;2.40;53.70;;;;;;5099807;28;20807;-58
2022/03/24 02:24:10;;;;;;;25.57;14.43;;;2.30;53.70;;;;;;5094815;28;20439;-58
2022/03/24 02:26:37;;;;;;;26.30;15.37;;;2.30;53.70;;;;;;5087158;28;20442;-58
2022/03/24 02:29:08;;;;;;;36.63;16.07;;;2.30;53.80;;;;;;5085637;28;20431;-58
2022/03/24 02:31:38;;;;;;;28.00;15.90;;;2.30;53.80;;;;;;5095873;28;20598;-58
2022/03/24 02:36:54;;;;;;;33.30;16.50;;;2.20;53.80;;;;;;5097401;28;20451;-58
2022/03/24 02:39:20;;;;;;;30.00;15.20;;;2.20;53.90;;;;;;5086651;28;20506;-58
2022/03/24 02:41:47;;;;;;;26.93;16.17;;;2.20;53.90;;;;;;5087466;28;20518;-58
2022/03/24 02:44:17;;;;;;;29.73;15.40;;;2.10;53.80;;;;;;5081708;28;21000;-57
2022/03/24 02:46:47;;;;;;;29.30;14.83;;;2.10;53.90;;;;;;5084981;28;20493;-58
2022/03/24 02:49:16;;;;;;;32.03;14.90;;;2.10;54.10;;;;;;5086739;28;20942;-58
2022/03/24 02:51:42;;;;;;;28.20;16.20;;;2.10;54.00;;;;;;5086191;28;20423;-57
2022/03/24 02:54:09;;;;;;;31.73;16.73;;;2.00;54.00;;;;;;5095819;22;20498;-59
2022/03/24 02:56:35;;;;;;;26.40;16.00;;;2.00;54.10;;;;;;5085630;28;20513;-59
2022/03/24 02:59:01;;;;;;;33.60;15.20;;;2.00;54.20;;;;;;5087961;28;21014;-59
2022/03/24 03:01:27;;;;;;;24.17;15.03;;;2.00;54.40;;;;;;5081949;28;21370;-59
2022/03/24 03:03:53;;;;;;;27.47;14.90;;;1.90;54.30;;;;;;5084314;28;20443;-59
2022/03/24 03:06:20;;;;;;;27.97;14.33;;;1.90;54.30;;;;;;5089967;28;20469;-59
2022/03/24 03:08:49;;;;;;;29.50;16.53;;;1.90;54.30;;;;;;5091940;28;20427;-60
2022/03/24 03:11:15;;;;;;;28.13;16.13;;;1.80;54.30;;;;;;5074634;28;20442;-59
2022/03/24 03:13:42;;;;;;;34.17;17.87;;;1.80;54.50;;;;;;5081081;28;20958;-60
2022/03/24 03:16:08;;;;;;;24.93;15.00;;;1.80;54.80;;;;;;5087821;28;20430;-60
2022/03/24 03:18:34;;;;;;;28.53;15.17;;;1.70;54.90;;;;;;5090284;28;20433;-60
2022/03/24 03:21:00;;;;;;;36.27;16.27;;;1.70;55.00;;;;;;5082002;28;20252;-59
2022/03/24 03:23:25;;;;;;;30.20;14.97;;;1.70;55.10;;;;;;5094993;28;20198;-59
2022/03/24 03:25:52;;;;;;;26.83;15.33;;;1.60;55.30;;;;;;5088383;28;20514;-59
2022/03/24 03:28:18;;;;;;;32.07;15.20;;;1.60;55.70;;;;;;5088465;28;20189;-58
2022/03/24 03:30:45;;;;;;;30.73;16.47;;;1.60;55.90;;;;;;5083244;28;20419;-59
2022/03/24 03:33:11;;;;;;;29.67;16.13;;;1.60;56.20;;;;;;5087897;28;20463;-60
2022/03/24 03:35:37;;;;;;;35.40;16.80;;;1.60;56.30;;;;;;5088877;28;20486;-59
2022/03/24 03:38:04;;;;;;;29.63;15.97;;;1.60;56.60;;;;;;5097636;28;20169;-59
2022/03/24 03:40:30;;;;;;;30.47;15.83;;;1.60;56.60;;;;;;5080174;28;20537;-59
2022/03/24 03:42:55;;;;;;;28.97;16.23;;;1.60;56.60;;;;;;5086547;28;20486;-58
2022/03/24 03:45:21;;;;;;;28.33;15.20;;;1.60;56.70;;;;;;5088281;28;20420;-59
2022/03/24 03:47:47;;;;;;;28.50;15.03;;;1.60;56.70;;;;;;5090705;28;20187;-59
2022/03/24 03:50:13;;;;;;;28.10;15.57;;;1.70;56.70;;;;;;5089093;28;20172;-59
2022/03/24 03:52:39;;;;;;;32.07;16.50;;;1.60;56.50;;;;;;5094997;28;20235;-59
2022/03/24 03:55:06;;;;;;;28.30;14.33;;;1.60;56.50;;;;;;5089839;28;20205;-60
2022/03/24 03:57:31;;;;;;;28.10;14.90;;;1.60;56.40;;;;;;5086449;28;20426;-58
2022/03/24 04:00:52;;;;;;;26.23;15.67;;;1.60;56.40;;;;;;5085214;28;20435;-60
2022/03/24 04:02:42;;;;;;;27.27;15.00;;;1.50;56.40;;;;;;5085447;28;20288;-59
2022/03/24 04:05:08;;;;;;;24.70;14.27;;;1.60;56.60;;;;;;5082891;28;20452;-59
2022/03/24 04:07:34;;;;;;;27.30;14.70;;;1.50;56.70;;;;;;5094861;28;20196;-60
2022/03/24 04:09:59;;;;;;;28.33;15.17;;;1.50;56.70;;;;;;5083166;28;20221;-59
2022/03/24 04:12:25;;;;;;;27.13;14.93;;;1.50;56.70;;;;;;5084454;28;20669;-60
2022/03/24 04:14:51;;;;;;;31.57;16.07;;;1.40;56.60;;;;;;5088273;28;20200;-60
2022/03/24 04:17:19;;;;;;;28.70;14.00;;;1.40;56.80;;;;;;5083652;28;20632;-59
2022/03/24 04:19:44;;;;;;;31.93;16.50;;;1.40;56.80;;;;;;5088336;28;20454;-59
2022/03/24 04:22:10;;;;;;;29.60;15.17;;;1.30;56.90;;;;;;5088760;28;22223;-59
2022/03/24 04:24:36;;;;;;;33.20;16.27;;;1.30;57.00;;;;;;5080092;28;20196;-59
2022/03/24 04:27:02;;;;;;;30.60;15.50;;;1.30;57.00;;;;;;5088542;28;20176;-59
2022/03/24 04:29:28;;;;;;;26.80;15.30;;;1.30;57.00;;;;;;5087088;28;20177;-60
2022/03/24 04:31:55;;;;;;;27.80;15.37;;;1.20;57.10;;;;;;5091451;28;21051;-59
2022/03/24 04:34:21;;;;;;;27.87;15.27;;;1.20;57.30;;;;;;5084311;28;20872;-59
2022/03/24 04:36:47;;;;;;;32.53;16.70;;;1.20;57.50;;;;;;5086366;28;20452;-58
2022/03/24 04:39:13;;;;;;;24.93;15.37;;;1.20;57.70;;;;;;5086130;28;21009;-58
2022/03/24 04:41:41;;;;;;;28.33;16.27;;;1.10;57.70;;;;;;5087279;28;20501;-59
2022/03/24 04:44:07;;;;;;;30.30;16.07;;;1.10;57.80;;;;;;5081646;28;20477;-60
2022/03/24 04:46:33;;;;;;;27.20;14.70;;;1.10;57.90;;;;;;5090020;28;20872;-59
2022/03/24 04:48:58;;;;;;;28.77;15.53;;;1.00;58.00;;;;;;5088691;28;20185;-59
2022/03/24 04:51:24;;;;;;;32.47;16.03;;;1.00;58.20;;;;;;5083474;28;20710;-61
2022/03/24 04:53:50;;;;;;;27.73;16.00;;;1.00;58.40;;;;;;5081706;28;20215;-59
2022/03/24 04:56:16;;;;;;;27.33;16.07;;;1.00;58.50;;;;;;5076570;28;20183;-59
2022/03/24 04:58:42;;;;;;;27.80;15.70;;;1.00;58.70;;;;;;5079761;28;20253;-58
2022/03/24 05:01:08;;;;;;;31.20;15.50;;;1.00;59.00;;;;;;5079294;28;20511;-60
2022/03/24 05:03:33;;;;;;;30.70;16.53;;;1.00;59.10;;;;;;5082714;28;20587;-59
2022/03/24 05:05:59;;;;;;;32.57;15.93;;;0.90;59.20;;;;;;5076208;28;20240;-61
2022/03/24 05:08:25;;;;;;;33.40;15.70;;;0.90;59.00;;;;;;5076935;28;20249;-58
2022/03/24 05:10:50;;;;;;;26.87;15.87;;;0.90;59.10;;;;;;5081896;28;20333;-59
2022/03/24 05:13:16;;;;;;;25.50;14.20;;;0.90;59.40;;;;;;5073826;28;20214;-59
2022/03/24 05:15:43;;;;;;;26.90;14.00;;;0.80;59.60;;;;;;5074384;28;20763;-58
2022/03/24 05:18:09;;;;;;;26.50;13.97;;;0.80;59.80;;;;;;5077124;28;20558;-61
2022/03/24 05:20:34;;;;;;;39.33;15.30;;;0.80;59.80;;;;;;5079785;28;20436;-60
2022/03/24 05:23:01;;;;;;;29.33;15.17;;;0.80;59.90;;;;;;5079002;28;20270;-60
2022/03/24 05:25:27;;;;;;;29.87;15.03;;;0.80;59.70;;;;;;5077347;28;20180;-59
2022/03/24 05:27:52;;;;;;;28.97;15.77;;;0.80;59.80;;;;;;5074584;28;20437;-61
2022/03/24 05:30:18;;;;;;;25.83;14.80;;;0.80;60.00;;;;;;5079427;28;20462;-59
2022/03/24 05:32:44;;;;;;;28.00;15.90;;;0.80;59.90;;;;;;5078999;28;20206;-59
2022/03/24 05:35:10;;;;;;;26.90;14.57;;;0.80;59.90;;;;;;5071547;28;20195;-58
2022/03/24 05:37:36;;;;;;;28.53;15.90;;;0.80;60.00;;;;;;5074597;28;20271;-58
2022/03/24 05:40:02;;;;;;;28.90;15.60;;;0.70;59.90;;;;;;5083284;28;20501;-59
2022/03/24 05:42:28;;;;;;;27.67;15.70;;;0.80;60.30;;;;;;5082363;28;20430;-58
2022/03/24 05:44:54;;;;;;;28.77;15.20;;;0.70;60.60;;;;;;5066747;28;20476;-59
2022/03/24 05:47:19;;;;;;;25.70;15.27;;;0.70;61.30;;;;;;5076910;28;20206;-60
2022/03/24 05:49:45;;;;;;;30.90;16.57;;;0.80;61.70;;;;;;5081210;28;20179;-61
2022/03/24 05:52:11;;;;;;;31.90;16.33;;;0.70;60.90;;;;;;5075527;28;20170;-59
2022/03/24 05:54:37;;;;;;;31.33;15.73;;;0.80;61.10;;;;;;5076572;28;20213;-59
2022/03/24 05:57:03;;;;;;;33.07;15.80;;;0.80;61.20;;;;;;5079507;28;20183;-61
2022/03/24 05:59:29;;;;;;;29.30;15.37;;;0.80;61.50;;;;;;5080104;28;20774;-59
2022/03/24 06:01:55;;;;;;;28.43;14.70;;;0.80;61.50;;;;;;5080027;28;20546;-59
2022/03/24 06:04:22;;;;;;;29.23;15.87;;;0.80;61.50;;;;;;5081253;28;20220;-59
2022/03/24 06:06:53;;;;;;;31.17;16.87;;;0.80;61.40;;;;;;5082534;28;21009;-61
2022/03/24 06:09:21;;;;;;;44.93;16.20;;;0.80;61.70;;;;;;5092989;28;20431;-61
2022/03/24 06:11:47;;;;;;;31.53;16.03;;;0.80;61.90;;;;;;5080844;28;20436;-59
2022/03/24 06:14:13;;;;;;;33.30;16.27;;;0.90;61.50;;;;;;5083033;28;21004;-59
2022/03/24 06:16:40;;;;;;;31.23;17.07;;;1.00;61.50;;;;;;5081108;28;20435;-58
2022/03/24 06:19:10;;;;;;;36.70;17.93;;;1.10;61.30;;;;;;5087034;28;20472;-59
2022/03/24 06:21:37;;;;;;;34.50;18.07;;;1.10;61.30;;;;;;5089786;28;20462;-59
2022/03/24 06:24:03;;;;;;;35.30;17.13;;;1.20;61.50;;;;;;5076906;28;20562;-59
2022/03/24 06:26:29;;;;;;;38.43;17.93;;;1.20;61.70;;;;;;5078877;28;20455;-58
2022/03/24 06:28:55;;;;;;;36.80;17.47;;;1.30;61.80;;;;;;5084527;28;20433;-59
2022/03/24 06:31:21;;;;;;;37.73;18.80;;;1.40;61.80;;;;;;5077427;28;20185;-62
2022/03/24 06:33:48;;;;;;;53.70;18.77;;;1.50;61.80;;;;;;5079838;28;20472;-59
2022/03/24 06:36:15;;;;;;;31.83;17.27;;;1.60;61.60;;;;;;5077076;28;20176;-59
2022/03/24 06:38:41;;;;;;;29.03;16.80;;;1.70;61.60;;;;;;5082029;28;20452;-59
2022/03/24 06:41:07;;;;;;;41.27;17.60;;;1.70;61.60;;;;;;5077710;28;20433;-60
2022/03/24 06:43:36;;;;;;;40.37;17.27;;;1.80;61.60;;;;;;5083590;28;20476;-60
2022/03/24 06:46:06;;;;;;;33.60;17.10;;;1.90;61.40;;;;;;5074845;28;21802;-60
2022/03/24 06:48:32;;;;;;;34.73;17.63;;;2.00;60.70;;;;;;5085764;28;20428;-60
2022/03/24 06:50:58;;;;;;;36.10;15.87;;;2.10;60.10;;;;;;5081309;28;20446;-60
2022/03/24 06:53:23;;;;;;;25.60;15.40;;;2.20;59.90;;;;;;5080395;28;20548;-60
2022/03/24 06:55:49;;;;;;;29.30;15.57;;;2.20;59.50;;;;;;5072383;28;20176;-60
2022/03/24 06:58:15;;;;;;;27.63;14.90;;;2.30;59.50;;;;;;5078846;28;20190;-59
2022/03/24 07:00:40;;;;;;;29.50;14.20;;;2.30;59.60;;;;;;5077237;28;20203;-60
2022/03/24 07:03:06;;;;;;;28.00;15.87;;;2.40;59.20;;;;;;5082636;28;20631;-60
2022/03/24 07:05:32;;;;;;;23.93;14.80;;;2.50;59.20;;;;;;5078633;28;20194;-61
2022/03/24 07:07:58;;;;;;;24.00;15.10;;;2.60;59.00;;;;;;5075295;28;20524;-61
2022/03/24 07:10:23;;;;;;;27.97;14.50;;;2.60;58.80;;;;;;5083415;28;20182;-60
2022/03/24 07:12:49;;;;;;;27.77;14.33;;;2.70;58.50;;;;;;5084680;28;20190;-62
2022/03/24 07:15:16;;;;;;;25.83;13.80;;;2.80;58.60;;;;;;5079844;28;20439;-59
2022/03/24 07:17:41;;;;;;;30.60;14.17;;;2.90;58.40;;;;;;5084730;28;20177;-60
2022/03/24 07:20:08;;;;;;;23.43;15.13;;;2.90;58.20;;;;;;5077574;28;20438;-61
2022/03/24 07:22:34;;;;;;;40.60;16.77;;;3.00;58.20;;;;;;5084610;28;20189;-59
2022/03/24 07:25:00;;;;;;;28.90;14.63;;;3.10;58.10;;;;;;5079078;28;20483;-60
2022/03/24 07:27:26;;;;;;;30.30;15.50;;;3.20;57.90;;;;;;5079460;28;20443;-59
2022/03/24 07:29:52;;;;;;;34.57;15.10;;;3.30;57.50;;;;;;5078062;28;20509;-59
2022/03/24 07:32:18;;;;;;;25.97;14.90;;;3.40;57.20;;;;;;5080987;28;20216;-59
2022/03/24 07:34:45;;;;;;;27.70;15.90;;;3.50;57.10;;;;;;5075847;28;20273;-60
2022/03/24 07:37:11;;;;;;;28.20;15.57;;;3.60;56.90;;;;;;5082305;28;20416;-60
2022/03/24 07:39:37;;;;;;;31.90;17.47;;;3.70;57.30;;;;;;5075182;28;20510;-60
2022/03/24 07:42:04;;;;;;;34.37;16.73;;;3.80;57.40;;;;;;5084067;28;20478;-59
2022/03/24 07:44:30;;;;;;;37.47;17.03;;;3.90;57.80;;;;;;5087819;28;20858;-60
2022/03/24 07:46:56;;;;;;;45.67;18.80;;;4.10;58.10;;;;;;5081943;28;20424;-61
2022/03/24 07:49:22;;;;;;;32.63;18.27;;;4.30;57.80;;;;;;5082141;28;20273;-60
2022/03/24 07:51:48;;;;;;;44.87;17.83;;;4.30;57.20;;;;;;5081993;28;20448;-59
2022/03/24 07:54:14;;;;;;;44.97;18.87;;;4.50;57.30;;;;;;5080371;28;20540;-59
2022/03/24 07:56:41;;;;;;;33.40;17.50;;;4.60;57.10;;;;;;5087872;28;20423;-60
2022/03/24 07:59:07;;;;;;;43.60;19.07;;;4.70;57.00;;;;;;5084264;28;20178;-60
2022/03/24 08:01:35;;;;;;;39.47;19.40;;;4.90;56.90;;;;;;5084251;28;20423;-60
2022/03/24 08:04:03;;;;;;;42.17;19.37;;;5.00;56.90;;;;;;5080003;28;20861;-60
2022/03/24 08:06:30;;;;;;;36.80;18.50;;;5.10;56.60;;;;;;5085673;28;20542;-59
2022/03/24 08:08:56;;;;;;;34.10;18.43;;;5.20;56.30;;;;;;5084080;28;20489;-59
2022/03/24 08:11:22;;;;;;;50.20;19.00;;;5.40;55.90;;;;;;5091357;28;20462;-59
2022/03/24 08:13:53;;;;;;;35.00;19.70;;;5.50;55.40;;;;;;5076449;28;20491;-60
2022/03/24 08:16:20;;;;;;;33.90;19.03;;;5.60;55.10;;;;;;5083316;28;20273;-60
2022/03/24 08:18:46;;;;;;;35.77;19.53;;;5.70;54.80;;;;;;5084727;28;20473;-59
2022/03/24 08:21:12;;;;;;;39.47;19.90;;;5.90;55.10;;;;;;5087445;28;20424;-60
2022/03/24 08:23:37;;;;;;;42.30;21.00;;;6.00;54.30;;;;;;5083469;28;20682;-60
2022/03/24 08:26:03;;;;;;;45.73;19.80;;;6.20;54.30;;;;;;5078143;28;20462;-61
2022/03/24 08:28:29;;;;;;;48.37;20.23;;;6.30;54.00;;;;;;5084439;28;20762;-59
2022/03/24 08:30:54;;;;;;;35.03;19.40;;;6.50;53.90;;;;;;5084131;28;20183;-59
2022/03/24 08:33:20;;;;;;;40.50;17.90;;;6.70;53.70;;;;;;5080736;28;20218;-60
2022/03/24 08:35:46;;;;;;;35.57;18.50;;;6.80;53.50;;;;;;5081886;28;20646;-62
2022/03/24 08:38:11;;;;;;;66.53;19.60;;;7.00;53.10;;;;;;5083029;28;20251;-60
2022/03/24 08:40:37;;;;;;;43.33;20.53;;;7.20;52.80;;;;;;5087778;28;20170;-60
2022/03/24 08:43:04;;;;;;;41.60;19.93;;;7.30;52.40;;;;;;5079457;28;20232;-60
2022/03/24 08:45:31;;;;;;;33.80;18.73;;;7.50;52.40;;;;;;5081293;28;20469;-60
2022/03/24 08:47:57;;;;;;;36.37;19.17;;;7.70;52.50;;;;;;5086479;28;20439;-61
2022/03/24 08:50:23;;;;;;;42.17;18.50;;;7.90;52.40;;;;;;5080032;28;20449;-60
2022/03/24 08:52:50;;;;;;;46.20;18.83;;;8.00;51.80;;;;;;5090691;28;20358;-61
2022/03/24 08:55:16;;;;;;;44.47;18.50;;;8.30;51.50;;;;;;5085686;28;20486;-59
2022/03/24 08:57:43;;;;;;;42.17;18.70;;;8.50;50.90;;;;;;5084271;28;20427;-60
2022/03/24 09:00:15;;;;;;;37.10;17.70;;;8.70;50.50;;;;;;5088704;28;20418;-61
2022/03/24 09:02:42;;;;;;;44.40;17.93;;;8.80;50.20;;;;;;5080867;28;20450;-62
2022/03/24 09:05:09;;;;;;;34.07;17.50;;;9.00;50.90;;;;;;5079616;28;20459;-60
2022/03/24 09:07:36;;;;;;;32.33;17.60;;;9.30;50.50;;;;;;5115478;22;20491;-59
2022/03/24 09:10:06;;;;;;;36.40;18.17;;;9.50;50.20;;;;;;5085713;28;20455;-59
2022/03/24 09:12:34;;;;;;;33.53;17.93;;;9.70;50.00;;;;;;5074847;28;20463;-58
2022/03/24 09:15:00;;;;;;;33.60;17.80;;;10.00;47.90;;;;;;5081117;28;20431;-60
2022/03/24 09:17:26;;;;;;;43.03;17.67;;;10.20;46.70;;;;;;5093216;28;20444;-59
2022/03/24 09:19:51;;;;;;;49.57;17.37;;;10.40;45.70;;;;;;5102212;28;20235;-59
2022/03/24 09:22:17;;;;;;;37.03;17.07;;;10.60;44.90;;;;;;5102384;27;20223;-57
2022/03/24 09:24:43;;;;;;;31.53;16.77;;;10.80;45.00;;;;;;5101662;28;20249;-57
2022/03/24 09:27:08;;;;;;;38.43;16.67;;;11.00;45.00;;;;;;5098743;28;20884;-56
2022/03/24 09:29:35;;;;;;;31.20;18.27;;;11.30;45.00;;;;;;5098747;28;20181;-57
2022/03/24 09:32:01;;;;;;;31.07;16.30;;;11.50;44.40;;;;;;5097042;27;20187;-57
2022/03/24 09:34:26;;;;;;;33.20;16.13;;;11.80;44.20;;;;;;5098512;28;20458;-57
2022/03/24 09:36:52;;;;;;;34.53;16.97;;;12.00;44.00;;;;;;5097849;28;20193;-57
2022/03/24 09:39:19;;;;;;;25.93;14.60;;;12.40;43.10;;;;;;5098855;28;20879;-57
2022/03/24 09:41:47;;;;;;;30.43;16.70;;;12.70;42.30;;;;;;5095647;28;20655;-58
2022/03/24 09:44:14;;;;;;;26.53;15.00;;;13.00;41.70;;;;;;5100395;28;20423;-57
2022/03/24 09:46:41;;;;;;;25.70;14.97;;;13.30;40.30;;;;;;5096499;28;20455;-58
2022/03/24 09:49:10;;;;;;;24.90;14.77;;;13.50;40.20;;;;;;5092229;28;20982;-56
2022/03/24 09:51:40;;;;;;;31.67;16.87;;;13.80;40.10;;;;;;5096182;28;20477;-58
2022/03/24 09:54:07;;;;;;;25.23;14.67;;;14.00;39.60;;;;;;5095860;28;20932;-57
2022/03/24 09:56:33;;;;;;;24.93;15.67;;;14.20;38.80;;;;;;5091600;28;20450;-57
2022/03/24 09:58:58;;;;;;;26.30;14.77;;;14.50;38.10;;;;;;5090986;28;20432;-57
2022/03/24 10:01:24;;;;;;;28.40;16.33;;;14.60;38.00;;;;;;5097459;28;20177;-57
2022/03/24 10:04:15;;;;;;;25.73;15.43;;;14.90;37.40;;;;;;5098536;28;20176;-58
2022/03/24 10:07:01;;;;;;;28.83;16.17;;;15.00;36.80;;;;;;5091825;28;20221;-58
2022/03/24 10:09:36;;;;;;;30.20;15.57;;;15.10;35.00;;;;;;5095729;28;20437;-57
2022/03/24 10:12:03;;;;;;;31.57;15.30;;;15.30;35.10;;;;;;5095719;28;20437;-57
2022/03/24 10:14:29;;;;;;;32.80;16.07;;;15.40;34.60;;;;;;5099434;28;20466;-57
2022/03/24 10:17:04;;;;;;;28.53;15.83;;;15.60;34.80;;;;;;5094761;28;20455;-57
2022/03/24 10:19:30;;;;;;;32.00;14.73;;;15.70;33.80;;;;;;5095531;28;20211;-57
2022/03/24 10:21:56;;;;;;;27.70;15.60;;;15.80;33.80;;;;;;5095528;28;20541;-58
2022/03/24 10:24:23;;;;;;;25.90;14.50;;;16.00;33.30;;;;;;5095582;28;20181;-58
2022/03/24 10:26:48;;;;;;;25.30;15.30;;;16.10;33.10;;;;;;5096669;28;20481;-58
2022/03/24 10:29:25;;;;;;;26.63;15.57;;;16.30;32.70;;;;;;5093927;28;21275;-57
2022/03/24 10:31:55;;;;;;;22.10;14.00;;;16.40;32.70;;;;;;5099047;28;20172;-56
2022/03/24 10:34:31;;;;;;;28.30;14.80;;;16.50;32.00;;;;;;5098774;28;20447;-56
2022/03/24 10:37:01;;;;;;;22.60;14.60;;;16.70;30.20;;;;;;5094468;28;20454;-56
2022/03/24 10:39:27;;;;;;;21.80;14.07;;;16.80;29.40;;;;;;5095152;28;20510;-57
2022/03/24 10:41:52;;;;;;;25.50;14.27;;;16.80;29.30;;;;;;5094887;28;20961;-57
2022/03/24 10:44:18;;;;;;;21.23;13.80;;;16.90;29.00;;;;;;5093610;28;20173;-57
2022/03/24 10:46:45;;;;;;;21.57;13.57;;;16.90;28.60;;;;;;5097056;28;20212;-58
2022/03/24 10:49:30;;;;;;;25.00;13.73;;;16.90;27.50;;;;;;5091768;28;20426;-57
2022/03/24 10:51:56;;;;;;;22.43;14.40;;;17.00;28.90;;;;;;5097058;28;20922;-57
2022/03/24 10:54:25;;;;;;;21.03;14.60;;;17.10;29.20;;;;;;5096493;28;20693;-57
2022/03/24 10:57:00;;;;;;;24.83;14.90;;;17.20;28.90;;;;;;5094238;28;20519;-57
2022/03/24 10:59:28;;;;;;;30.20;15.20;;;17.40;29.20;;;;;;5095915;28;20548;-57
2022/03/24 11:01:54;;;;;;;20.30;14.00;;;17.50;29.60;;;;;;5094929;28;20511;-57
2022/03/24 11:04:20;;;;;;;23.77;11.90;;;17.70;29.10;;;;;;5099411;28;20430;-57
2022/03/24 11:06:51;;;;;;;20.80;13.23;;;17.90;28.80;;;;;;5094740;28;20458;-57
2022/03/24 11:09:26;;;;;;;21.70;14.10;;;18.00;28.30;;;;;;5097157;28;20449;-57
2022/03/24 11:12:26;;;;;;;21.17;13.47;;;18.10;28.30;;;;;;5106670;28;21088;-57
2022/03/24 11:14:54;;;;;;;21.20;13.10;;;18.10;28.00;;;;;;5099236;28;20430;-56
2022/03/24 11:17:31;;;;;;;23.07;13.90;;;18.20;27.50;;;;;;5099358;27;20451;-56
2022/03/24 11:20:05;;;;;;;19.10;12.63;;;18.20;26.70;;;;;;5104077;28;20476;-57
2022/03/24 11:22:42;;;;;;;23.23;15.17;;;18.30;27.30;;;;;;5097074;27;20426;-58
2022/03/24 11:25:08;;;;;;;25.33;15.00;;;18.40;27.20;;;;;;5100265;28;20787;-57
2022/03/24 11:27:34;;;;;;;25.00;12.93;;;18.40;26.90;;;;;;5099644;28;20485;-56
2022/03/24 11:30:02;;;;;;;22.23;12.87;;;18.60;26.70;;;;;;5100549;28;20809;-57
2022/03/24 11:32:28;;;;;;;23.43;12.50;;;18.50;24.50;;;;;;5100663;28;20193;-56
2022/03/24 11:34:55;;;;;;;20.30;13.50;;;18.60;26.30;;;;;;5099113;28;20713;-57
2022/03/24 11:37:21;;;;;;;21.50;14.47;;;18.70;27.00;;;;;;5102918;28;20445;-57
2022/03/24 11:40:15;;;;;;;22.53;13.67;;;18.80;26.90;;;;;;5096556;28;20587;-57
2022/03/24 11:42:55;;;;;;;20.03;13.00;;;19.00;27.60;;;;;;5071834;28;20424;-54
2022/03/24 11:45:28;;;;;;;22.00;12.60;;;19.20;27.20;;;;;;5095484;28;21353;-54
2022/03/24 11:48:10;;;;;;;20.40;12.40;;;19.40;27.30;;;;;;5093557;28;20469;-54
2022/03/24 11:50:40;;;;;;;23.60;13.47;;;19.60;26.60;;;;;;5096100;28;20462;-55
2022/03/24 11:53:36;;;;;;;15.73;11.60;;;19.80;26.70;;;;;;5099630;28;20465;-56
2022/03/24 11:56:02;;;;;;;21.00;11.77;;;19.90;27.40;;;;;;5100863;27;20426;-55
2022/03/24 11:58:40;;;;;;;16.60;11.50;;;20.10;25.30;;;;;;5103155;28;20423;-56
2022/03/24 12:01:19;;;;;;;17.63;10.70;;;20.10;23.00;;;;;;5099296;28;20180;-59
2022/03/24 12:03:51;;;;;;;21.27;13.20;;;20.20;25.70;;;;;;5099600;28;20426;-55
2022/03/24 12:06:18;;;;;;;21.00;13.40;;;20.30;23.60;;;;;;5098510;28;20430;-55
2022/03/24 12:08:45;;;;;;;18.27;12.93;;;20.40;24.70;;;;;;5102345;28;20495;-56
2022/03/24 12:11:41;;;;;;;17.93;12.87;;;20.50;24.70;;;;;;5098817;27;20458;-56
2022/03/24 12:14:24;;;;;;;16.33;11.90;;;20.60;22.80;;;;;;5085181;28;20466;-55
2022/03/24 12:16:52;;;;;;;28.13;12.90;;;20.60;24.20;;;;;;5097417;28;20874;-57
2022/03/24 12:19:35;;;;;;;17.47;11.93;;;20.80;24.30;;;;;;5101724;28;20446;-56
2022/03/24 12:22:01;;;;;;;19.10;11.93;;;21.00;23.90;;;;;;5093200;27;20444;-56
2022/03/24 12:24:37;;;;;;;19.07;12.50;;;21.10;24.80;;;;;;5096722;28;20536;-58
2022/03/24 12:27:05;;;;;;;20.13;11.83;;;21.40;25.60;;;;;;5095838;27;20460;-58
2022/03/24 12:29:32;;;;;;;23.57;12.77;;;21.60;25.10;;;;;;5097991;28;20427;-56
2022/03/24 12:32:05;;;;;;;22.17;12.33;;;21.70;22.10;;;;;;5093694;28;20435;-57
2022/03/24 12:34:43;;;;;;;15.70;10.77;;;21.50;21.80;;;;;;5098014;28;20476;-58
2022/03/24 12:37:26;;;;;;;21.53;13.17;;;21.50;23.70;;;;;;5096240;28;20458;-58
2022/03/24 12:40:09;;;;;;;20.63;12.17;;;21.50;21.80;;;;;;5098186;28;20950;-55